createdAt,value
2022-10-04T00:00:37.886Z,7.78
2022-10-04T00:04:14.947Z,5.00
2022-10-04T00:07:24.097Z,6.72
2022-10-04T00:10:31.479Z,8.98
2022-10-04T00:13:37.674Z,6.90
2022-10-04T00:16:43.808Z,6.22
2022-10-04T00:19:49.721Z,6.50
2022-10-04T00:23:24.956Z,6.28
2022-10-04T00:26:30.801Z,6.40
2022-10-04T00:29:37.591Z,7.22
2022-10-04T00:32:40.932Z,6.93
2022-10-04T00:35:49.465Z,8.83
2022-10-04T00:39:26.390Z,7.07
2022-10-04T00:42:53.341Z,7.03
2022-10-04T00:46:09.828Z,7.60
2022-10-04T00:49:14.591Z,7.10
2022-10-04T00:52:27.776Z,6.50
2022-10-04T00:55:52.700Z,8.95
2022-10-04T00:58:58.890Z,8.77
2022-10-04T01:02:10.665Z,5.75
2022-10-04T01:05:21.728Z,8.77
2022-10-04T01:08:33.811Z,7.23
2022-10-04T01:11:44.660Z,6.40
2022-10-04T01:15:07.865Z,9.13
2022-10-04T01:18:18.641Z,7.22
2022-10-04T01:21:27.047Z,8.45
2022-10-04T01:24:35.927Z,9.47
2022-10-04T01:27:43.997Z,8.57
2022-10-04T01:30:47.291Z,9.80
2022-10-04T01:33:50.488Z,7.88
2022-10-04T01:36:56.634Z,7.68
2022-10-04T01:39:59.941Z,5.93
2022-10-04T01:43:10.012Z,7.50
2022-10-04T01:46:31.569Z,7.93
2022-10-04T01:49:38.648Z,8.90
2022-10-04T01:53:01.456Z,7.30
2022-10-04T01:56:33.078Z,7.97
2022-10-04T01:59:44.715Z,9.63
2022-10-04T02:03:09.652Z,9.15
2022-10-04T02:06:14.291Z,8.13
2022-10-04T02:09:25.691Z,9.77
2022-10-04T02:12:31.503Z,7.73
2022-10-04T02:15:39.498Z,7.95
2022-10-04T02:18:44.175Z,8.63
2022-10-04T02:21:48.786Z,8.98
2022-10-04T02:24:55.928Z,12.90
2022-10-04T02:27:59.128Z,7.30
2022-10-04T02:31:22.687Z,8.38
2022-10-04T02:34:26.230Z,9.68
2022-10-04T02:37:30.074Z,8.20
2022-10-04T02:40:57.916Z,8.57
2022-10-04T02:44:10.832Z,8.80
2022-10-04T02:47:50.013Z,12.30
2022-10-04T02:50:56.820Z,6.68
2022-10-04T02:54:21.506Z,7.85
2022-10-04T02:57:24.976Z,7.97
2022-10-04T03:00:31.187Z,9.10
2022-10-04T03:03:39.119Z,11.38
2022-10-04T03:06:45.701Z,15.30
2022-10-04T03:09:49.668Z,13.40
2022-10-04T03:12:53.432Z,12.27
2022-10-04T03:15:56.725Z,12.37
2022-10-04T03:19:00.268Z,10.75
2022-10-04T03:22:08.545Z,11.27
2022-10-04T03:25:50.784Z,13.77
2022-10-04T03:28:54.140Z,10.38
2022-10-04T03:32:00.610Z,10.00
2022-10-04T03:35:08.109Z,10.52
2022-10-04T03:38:13.198Z,11.32
2022-10-04T03:41:16.812Z,10.25
2022-10-04T03:44:21.683Z,7.95
2022-10-04T03:47:38.500Z,8.00
2022-10-04T03:50:47.867Z,23.40
2022-10-04T03:53:54.971Z,9.30
2022-10-04T03:56:59.574Z,9.02
2022-10-04T04:00:06.137Z,6.97
2022-10-04T04:03:20.465Z,9.57
2022-10-04T04:06:25.367Z,8.60
2022-10-04T04:09:42.365Z,10.43
2022-10-04T04:12:54.432Z,10.02
2022-10-04T04:16:00.827Z,7.93
2022-10-04T04:19:11.821Z,6.77
2022-10-04T04:22:19.579Z,7.63
2022-10-04T04:25:26.249Z,8.40
2022-10-04T04:28:29.667Z,10.00
2022-10-04T04:31:44.100Z,9.48
2022-10-04T04:35:07.080Z,11.33
2022-10-04T04:38:23.748Z,8.75
2022-10-04T04:41:29.119Z,9.82
2022-10-04T04:44:33.186Z,10.88
2022-10-04T04:47:44.815Z,12.32
2022-10-04T04:50:57.763Z,12.37
2022-10-04T04:54:03.605Z,9.38
2022-10-04T04:57:06.948Z,11.98
2022-10-04T05:00:21.066Z,11.07
2022-10-04T05:03:24.696Z,10.18
2022-10-04T05:06:30.588Z,14.93
2022-10-04T05:09:33.792Z,9.38
2022-10-04T05:12:36.949Z,15.57
2022-10-04T05:15:41.892Z,17.73
2022-10-04T05:18:46.171Z,12.38
2022-10-04T05:21:54.685Z,15.77
2022-10-04T05:25:10.236Z,14.77
2022-10-04T05:28:18.247Z,8.75
2022-10-04T05:31:32.433Z,11.43
2022-10-04T05:34:45.536Z,9.70
2022-10-04T05:38:04.439Z,9.57
2022-10-04T05:41:12.772Z,9.32
2022-10-04T05:44:26.251Z,8.43
2022-10-04T05:47:31.390Z,12.55
2022-10-04T05:50:40.889Z,12.50
2022-10-04T05:53:47.115Z,13.63
2022-10-04T05:57:15.752Z,10.50
2022-10-04T06:00:21.674Z,9.40
2022-10-04T06:03:50.059Z,11.57
2022-10-04T06:07:16.686Z,11.27
2022-10-04T06:10:55.545Z,11.53
2022-10-04T06:14:16.926Z,9.95
2022-10-04T06:17:48.295Z,15.00
2022-10-04T06:21:21.391Z,15.20
2022-10-04T06:24:29.571Z,10.93
2022-10-04T06:28:00.095Z,12.17
2022-10-04T06:31:15.265Z,9.98
2022-10-04T06:34:42.772Z,8.07
2022-10-04T06:37:51.775Z,9.68
2022-10-04T06:41:20.976Z,6.95
2022-10-04T06:44:46.597Z,7.83
2022-10-04T06:48:33.512Z,7.07
2022-10-04T06:52:01.266Z,6.00
2022-10-04T06:55:47.173Z,6.15
2022-10-04T06:58:59.315Z,6.93
2022-10-04T07:02:12.955Z,8.33
2022-10-04T07:05:30.487Z,6.22
2022-10-04T07:08:48.119Z,9.55
2022-10-04T07:12:02.258Z,10.52
2022-10-04T07:15:16.084Z,8.20
2022-10-04T07:18:58.400Z,5.80
2022-10-04T07:22:08.694Z,5.57
2022-10-04T07:25:28.122Z,8.90
2022-10-04T07:28:59.168Z,9.25
2022-10-04T07:32:05.714Z,5.45
2022-10-04T07:35:14.484Z,7.40
2022-10-04T07:38:29.697Z,6.85
2022-10-04T07:41:37.314Z,6.78
2022-10-04T07:44:45.152Z,5.63
2022-10-04T07:47:48.625Z,5.68
2022-10-04T07:51:25.768Z,6.70
2022-10-04T07:54:43.637Z,8.48
2022-10-04T07:58:17.526Z,6.82
2022-10-04T08:01:45.273Z,7.95
2022-10-04T08:05:33.258Z,10.18
2022-10-04T08:08:58.189Z,5.60
2022-10-04T08:12:25.273Z,4.93
2022-10-04T08:15:40.931Z,5.88
2022-10-04T08:19:22.020Z,4.85
2022-10-04T08:22:48.611Z,6.32
2022-10-04T08:25:57.308Z,8.13
2022-10-04T08:29:24.786Z,5.93
2022-10-04T08:32:39.993Z,9.48
2022-10-04T08:36:20.484Z,11.05
2022-10-04T08:40:02.703Z,5.97
2022-10-04T08:43:39.232Z,7.30
2022-10-04T08:46:53.183Z,7.03
2022-10-04T08:50:18.207Z,7.90
2022-10-04T08:53:53.328Z,8.73
2022-10-04T08:57:02.154Z,10.30
2022-10-04T09:00:29.798Z,6.23
2022-10-04T09:03:49.405Z,5.30
2022-10-04T09:07:30.181Z,8.10
2022-10-04T09:10:53.533Z,7.22
2022-10-04T09:14:31.291Z,4.55
2022-10-04T09:17:52.495Z,5.43
2022-10-04T09:20:59.005Z,5.05
2022-10-04T09:24:36.718Z,7.35
2022-10-04T09:28:12.098Z,6.43
2022-10-04T09:31:52.793Z,6.75
2022-10-04T09:35:24.215Z,10.33
2022-10-04T09:38:42.108Z,5.50
2022-10-04T09:42:07.036Z,6.05
2022-10-04T09:45:31.534Z,8.05
2022-10-04T09:48:53.843Z,7.80
2022-10-04T09:52:15.506Z,8.60
2022-10-04T09:55:42.107Z,3.83
2022-10-04T09:59:12.661Z,6.90
2022-10-04T10:02:44.513Z,13.60
2022-10-04T10:06:15.727Z,7.95
2022-10-04T10:09:21.743Z,4.33
2022-10-04T10:12:46.100Z,6.72
2022-10-04T10:15:59.610Z,8.85
2022-10-04T10:19:11.414Z,7.35
2022-10-04T10:22:42.376Z,8.98
2022-10-04T10:25:59.202Z,11.63
2022-10-04T10:29:17.027Z,9.23
2022-10-04T10:32:38.725Z,4.32
2022-10-04T10:35:49.186Z,6.80
2022-10-04T10:38:55.161Z,7.72
2022-10-04T10:42:16.763Z,6.93
2022-10-04T10:45:34.731Z,6.93
2022-10-04T10:48:40.813Z,4.65
2022-10-04T10:51:46.501Z,6.57
2022-10-04T10:54:55.499Z,6.65
2022-10-04T10:58:01.132Z,5.17
2022-10-04T11:01:16.109Z,8.13
2022-10-04T11:04:24.888Z,6.40
2022-10-04T11:07:30.688Z,4.53
2022-10-04T11:10:55.422Z,6.35
2022-10-04T11:13:58.386Z,4.67
2022-10-04T11:17:20.931Z,8.27
2022-10-04T11:20:30.163Z,6.18
2022-10-04T11:23:49.322Z,5.55
2022-10-04T11:27:13.926Z,5.68
2022-10-04T11:30:24.966Z,4.23
2022-10-04T11:34:03.547Z,2.30
2022-10-04T11:37:13.154Z,3.78
2022-10-04T11:40:39.473Z,8.48
2022-10-04T11:43:46.553Z,4.50
2022-10-04T11:46:49.598Z,4.80
2022-10-04T11:50:11.648Z,5.60
2022-10-04T11:53:22.157Z,4.05
2022-10-04T11:56:43.504Z,4.85
2022-10-04T12:00:05.328Z,5.07
2022-10-04T12:03:31.090Z,6.60
2022-10-04T12:06:47.761Z,4.72
2022-10-04T12:09:58.690Z,5.00
2022-10-04T12:13:35.902Z,8.95
2022-10-04T12:16:50.560Z,4.68
2022-10-04T12:19:59.393Z,5.73
2022-10-04T12:23:05.180Z,8.30
2022-10-04T12:26:20.788Z,4.20
2022-10-04T12:29:24.254Z,6.40
2022-10-04T12:32:31.049Z,8.75
2022-10-04T12:35:49.111Z,5.73
2022-10-04T12:38:52.138Z,5.97
2022-10-04T12:41:57.836Z,4.85
2022-10-04T12:45:20.182Z,7.22
2022-10-04T12:48:48.294Z,4.05
2022-10-04T12:52:06.344Z,5.00
2022-10-04T12:55:48.120Z,6.40
2022-10-04T12:59:22.844Z,7.07
2022-10-04T13:02:44.085Z,6.72
2022-10-04T13:05:56.753Z,11.13
2022-10-04T13:09:14.848Z,4.83
2022-10-04T13:12:47.542Z,5.90
2022-10-04T13:19:53.107Z,6.68
2022-10-04T13:23:00.501Z,9.02
2022-10-04T13:26:04.292Z,7.47
2022-10-04T13:29:25.483Z,3.92
2022-10-04T13:32:43.314Z,4.22
2022-10-04T13:36:07.439Z,7.95
2022-10-04T13:39:19.827Z,4.10
2022-10-04T13:42:50.347Z,8.03
2022-10-04T13:45:53.509Z,8.07
2022-10-04T13:49:28.149Z,9.48
2022-10-04T13:53:34.220Z,4.65
2022-10-04T13:56:40.515Z,8.38
2022-10-04T13:59:46.469Z,11.30
2022-10-04T14:02:59.226Z,4.35
2022-10-04T14:06:22.477Z,5.10
2022-10-04T14:09:37.496Z,6.93
2022-10-04T14:12:59.500Z,5.53
2022-10-04T14:16:02.417Z,8.40
2022-10-04T14:19:07.038Z,5.30
2022-10-04T14:22:26.713Z,6.22
2022-10-04T14:25:46.924Z,5.30
2022-10-04T14:28:57.160Z,3.75
2022-10-04T14:32:20.441Z,9.43
2022-10-04T14:35:41.957Z,3.45
2022-10-04T14:38:55.279Z,5.47
2022-10-04T14:42:15.653Z,3.67
2022-10-04T14:45:35.146Z,4.90
2022-10-04T14:48:59.157Z,5.57
2022-10-04T14:52:23.269Z,4.68
2022-10-04T14:55:45.094Z,11.27
2022-10-04T14:59:00.186Z,5.47
2022-10-04T15:02:37.311Z,3.63
2022-10-04T15:05:53.076Z,6.23
2022-10-04T15:09:20.051Z,5.00
2022-10-04T15:13:10.008Z,3.30
2022-10-04T15:16:43.056Z,3.30
2022-10-04T15:20:35.041Z,6.85
2022-10-04T15:23:42.865Z,3.97
2022-10-04T15:27:16.700Z,6.28
2022-10-04T15:30:31.474Z,5.97
2022-10-04T15:33:43.322Z,9.27
2022-10-04T15:37:12.285Z,4.93
2022-10-04T15:40:41.412Z,6.00
2022-10-04T15:43:50.146Z,4.47
2022-10-04T15:46:53.232Z,8.48
2022-10-04T15:50:31.163Z,4.60
2022-10-04T15:53:48.401Z,4.85
2022-10-04T15:56:56.173Z,6.37
2022-10-04T16:00:10.524Z,5.63
2022-10-04T16:03:34.117Z,7.97
2022-10-04T16:07:20.856Z,8.57
2022-10-04T16:10:32.910Z,6.47
2022-10-04T16:13:41.528Z,6.43
2022-10-04T16:17:06.456Z,9.10
2022-10-04T16:20:48.389Z,9.50
2022-10-04T16:24:20.495Z,5.60
2022-10-04T16:27:44.437Z,8.50
2022-10-04T16:31:09.134Z,12.50
2022-10-04T16:34:27.296Z,6.78
2022-10-04T16:37:33.912Z,8.73
2022-10-04T16:40:52.757Z,5.65
2022-10-04T16:44:01.048Z,9.02
2022-10-04T16:47:31.373Z,7.80
2022-10-04T16:50:56.704Z,6.30
2022-10-04T16:54:36.890Z,8.52
2022-10-04T16:57:43.411Z,9.95
2022-10-04T17:00:47.942Z,4.93
2022-10-04T17:04:03.439Z,6.37
2022-10-04T17:07:33.982Z,7.95
2022-10-04T17:10:49.573Z,11.93
2022-10-04T17:13:58.155Z,7.50
2022-10-04T17:17:15.366Z,11.82
2022-10-04T17:20:38.002Z,9.57
2022-10-04T17:24:11.652Z,7.50
2022-10-04T17:27:27.184Z,7.65
2022-10-04T17:30:49.081Z,8.82
2022-10-04T17:34:14.795Z,8.25
2022-10-04T17:37:46.325Z,8.97
2022-10-04T17:40:59.723Z,7.43
2022-10-04T17:44:40.964Z,9.07
2022-10-04T17:48:28.384Z,5.70
2022-10-04T17:52:13.568Z,10.48
2022-10-04T17:55:35.809Z,8.90
2022-10-04T17:58:41.656Z,6.93
2022-10-04T18:02:13.942Z,8.88
2022-10-04T18:05:26.766Z,8.50
2022-10-04T18:09:14.244Z,11.48
2022-10-04T18:12:46.412Z,8.07
2022-10-04T18:16:02.859Z,9.15
2022-10-04T18:19:41.668Z,14.48
2022-10-04T18:22:51.289Z,10.85
2022-10-04T18:26:21.943Z,7.88
2022-10-04T18:29:39.207Z,9.17
2022-10-04T18:32:50.244Z,10.15
2022-10-04T18:36:05.147Z,9.95
2022-10-04T18:39:14.626Z,13.23
2022-10-04T18:42:29.977Z,10.85
2022-10-04T18:45:34.587Z,13.17
2022-10-04T18:48:51.025Z,11.02
2022-10-04T18:52:21.170Z,12.18
2022-10-04T18:55:48.806Z,13.68
2022-10-04T18:59:23.941Z,9.63
2022-10-04T19:02:38.779Z,12.73
2022-10-04T19:06:09.545Z,10.80
2022-10-04T19:09:26.806Z,13.25
2022-10-04T19:12:48.308Z,13.63
2022-10-04T19:16:15.312Z,16.75
2022-10-04T19:19:27.144Z,16.70
2022-10-04T19:22:43.482Z,16.58
2022-10-04T19:26:33.208Z,14.25
2022-10-04T19:30:01.553Z,11.77
2022-10-04T19:33:14.096Z,14.57
2022-10-04T19:36:26.749Z,15.03
2022-10-04T19:39:35.894Z,14.25
2022-10-04T19:43:11.272Z,13.23
2022-10-04T19:46:46.511Z,13.73
2022-10-04T19:50:17.872Z,16.73
2022-10-04T19:53:34.943Z,15.60
2022-10-04T19:56:49.864Z,12.70
2022-10-04T19:59:53.191Z,17.63
2022-10-04T20:02:56.395Z,17.27
2022-10-04T20:06:01.088Z,13.85
2022-10-04T20:09:48.029Z,13.90
2022-10-04T20:13:25.357Z,16.73
2022-10-04T20:16:48.113Z,15.90
2022-10-04T20:19:51.958Z,15.38
2022-10-04T20:22:56.684Z,17.17
2022-10-04T20:26:00.488Z,16.60
2022-10-04T20:29:03.801Z,17.88
2022-10-04T20:32:38.921Z,15.85
2022-10-04T20:36:02.169Z,14.85
2022-10-04T20:39:06.640Z,13.73
2022-10-04T20:42:22.798Z,17.77
2022-10-04T20:45:27.699Z,17.00
2022-10-04T20:48:32.283Z,14.20
2022-10-04T20:51:35.381Z,24.48
2022-10-04T20:54:38.788Z,12.68
2022-10-04T20:57:41.918Z,15.37
2022-10-04T21:00:56.289Z,13.30
2022-10-04T21:04:32.280Z,13.27
2022-10-04T21:07:35.405Z,11.75
2022-10-04T21:11:01.456Z,16.27
2022-10-04T21:14:04.702Z,13.53
2022-10-04T21:17:29.244Z,12.50
2022-10-04T21:20:49.011Z,14.70
2022-10-04T21:23:52.109Z,12.55
2022-10-04T21:26:58.692Z,13.30
2022-10-04T21:30:12.691Z,12.83
2022-10-04T21:33:15.777Z,12.35
2022-10-04T21:36:18.961Z,12.40
2022-10-04T21:39:23.032Z,10.80
2022-10-04T21:42:26.241Z,13.13
2022-10-04T21:45:29.363Z,14.87
2022-10-04T21:48:32.592Z,15.25
2022-10-04T21:51:37.251Z,13.85
2022-10-04T21:54:40.360Z,15.18
2022-10-04T21:57:43.673Z,15.02
2022-10-04T22:00:46.811Z,14.43
2022-10-04T22:03:50.111Z,11.98
2022-10-04T22:06:53.283Z,14.40
2022-10-04T22:09:57.799Z,14.60
2022-10-04T22:13:00.967Z,14.05
2022-10-04T22:16:04.535Z,14.57
2022-10-04T22:19:07.727Z,13.07
2022-10-04T22:22:17.333Z,13.23
2022-10-04T22:25:26.099Z,14.35
2022-10-04T22:28:30.909Z,16.10
2022-10-04T22:31:34.103Z,13.93
2022-10-04T22:34:37.328Z,15.45
2022-10-04T22:37:40.704Z,13.75
2022-10-04T22:40:44.834Z,15.80
2022-10-04T22:43:50.085Z,12.90
2022-10-04T22:46:56.124Z,12.60
2022-10-04T22:49:59.340Z,16.52
2022-10-04T22:53:23.131Z,13.32
2022-10-04T22:56:26.528Z,15.05
2022-10-04T22:59:40.154Z,17.38
2022-10-04T23:02:43.316Z,15.10
2022-10-04T23:05:46.487Z,13.32
2022-10-04T23:08:49.644Z,16.15
2022-10-04T23:11:52.770Z,13.82
2022-10-04T23:14:55.855Z,18.85
2022-10-04T23:17:59.089Z,15.23
2022-10-04T23:21:02.495Z,12.80
2022-10-04T23:24:23.992Z,13.15
2022-10-04T23:27:28.228Z,15.68
2022-10-04T23:30:31.478Z,16.40
2022-10-04T23:33:35.132Z,16.73
2022-10-04T23:36:38.261Z,17.90
2022-10-04T23:39:41.897Z,12.98
2022-10-04T23:42:46.716Z,14.93
2022-10-04T23:45:50.080Z,16.27
2022-10-04T23:48:55.348Z,20.47
2022-10-04T23:52:02.279Z,20.00
2022-10-04T23:55:22.636Z,16.05
2022-10-04T23:58:33.777Z,14.70
